Flight Track Log - Related Links

Times and Time Zones

All times are in EDT time to prevent confusion due to time zone crossing. See the BVN8580 flight status page for this flight to view local times or setup timezone preferences in your user account.

Time Position Orientation Groundspeed Altitude Reporting Facility
EDT Latitude Longitude Course Direction KTS MPH feet Rate Location/Type
Thu 08:06:17 AM 41.2953 -95.8992 249° West 86 99 1,500  Level Minneapolis Center
Thu 08:11:44 AM 41.2431 -96.0764 260° West 97 112 5,500 746 Climbing Minneapolis Center
Thu 08:12:51 AM 41.2381 -96.1147 255° West 98 113 6,400 750 Climbing Minneapolis Center
Thu 08:13:52 AM 41.2308 -96.1503 268° West 100 115 7,100 694 Climbing Minneapolis Center
Thu 08:14:52 AM 41.2300 -96.1889 259° West 108 124 7,800 446 Climbing Minneapolis Center
Thu 08:15:53 AM 41.2225 -96.2408 262° West 131 151 8,000 99 Climbing Minneapolis Center
Thu 08:16:53 AM 41.2169 -96.2903 257° West 141 162 8,000  Level Minneapolis Center
Thu 08:17:48 AM 41.2094 -96.3339 265° West 138 159 8,000  Level Minneapolis Center
Thu 08:18:43 AM 41.2061 -96.3806 256° West 137 158 8,000  Level Minneapolis Center
Thu 08:19:49 AM 41.1964 -96.4325 261° West 135 155 8,000  Level Minneapolis Center
Thu 08:20:50 AM 41.1911 -96.4792 258° West 132 152 8,000  Level Minneapolis Center
Thu 08:21:51 AM 41.1833 -96.5283 262° West 133 153 8,000  Level Minneapolis Center
Thu 08:22:57 AM 41.1778 -96.5831 255° West 133 153 8,000  Level Minneapolis Center
Thu 08:23:58 AM 41.1681 -96.6322 264° West 133 153 8,000  Level Minneapolis Center
Thu 08:24:59 AM 41.1644 -96.6814 262° West 134 154 8,000  Level Minneapolis Center
Thu 08:25:59 AM 41.1586 -96.7333 255° West 135 155 8,000  Level Minneapolis Center
Thu 08:27:00 AM 41.1489 -96.7825 264° West 135 155 8,000  Level Minneapolis Center
Thu 08:28:00 AM 41.1453 -96.8319 257° West 136 157 8,000  Level Minneapolis Center
Thu 08:29:01 AM 41.1375 -96.8783 262° West 135 155 8,000  Level Minneapolis Center
Thu 08:30:08 AM 41.1317 -96.9303 259° West 133 153 8,000  Level Minneapolis Center
Thu 08:31:08 AM 41.1239 -96.9847 261° West 134 154 8,000  Level Minneapolis Center
Thu 08:32:09 AM 41.1181 -97.0339 257° West 134 154 8,000  Level Minneapolis Center
Thu 08:33:10 AM 41.1103 -97.0803 304° West 134 154 8,000  Level Minneapolis Center
Thu 08:33:42 AM 41.1219 -97.1031 261° West 136 157 8,000  Level Minneapolis Center
Thu 08:34:42 AM 41.1161 -97.1522 261° West 136 157 8,000  Level Minneapolis Center
Thu 08:35:42 AM 41.1103 -97.2014 264° West 128 147 8,000  Level Minneapolis Center
Thu 08:36:42 AM 41.1067 -97.2478 258° West 133 153 8,000  Level Minneapolis Center
Thu 08:37:43 AM 41.0986 -97.2969 261° West 133 153 8,000 50 Level Minneapolis Center
Thu 08:38:42 AM 41.0928 -97.3433 270° West 138 159 8,100 50 Climbing Minneapolis Center
Thu 08:39:42 AM 41.0931 -97.3928 257° West 138 159 8,100  Level Minneapolis Center
Thu 08:40:42 AM 41.0853 -97.4392 261° West 138 159 8,100  Level Minneapolis Center
Thu 08:41:43 AM 41.0792 -97.4883 257° West 138 159 8,100  Level Minneapolis Center
Thu 08:42:42 AM 41.0714 -97.5344 264° West 138 159 8,100  Level Minneapolis Center
Thu 08:43:42 AM 41.0672 -97.5864 261° West 143 165 8,100  Level Minneapolis Center
Thu 08:44:42 AM 41.0611 -97.6356 255° West 143 165 8,100  Level Minneapolis Center
Thu 08:45:42 AM 41.0508 -97.6872 257° West 143 165 8,100 -50 Level Minneapolis Center
Thu 08:46:42 AM 41.0428 -97.7333 264° West 143 165 8,000 -50 Descending Minneapolis Center
Thu 08:47:42 AM 41.0386 -97.7881 261° West 143 165 8,000  Level Minneapolis Center
Thu 08:48:43 AM 41.0322 -97.8397 261° West 143 165 8,000 -149 Level Minneapolis Center
Thu 08:49:43 AM 41.0261 -97.8917 259° West 143 165 7,700 -454 Descending Minneapolis Center
Thu 08:50:42 AM 41.0172 -97.9514 264° West 154 177 7,100 -605 Descending Minneapolis Center
Thu 08:51:42 AM 41.0128 -98.0086 259° West 160 184 6,500 -650 Descending Minneapolis Center
Thu 08:52:42 AM 41.0042 -98.0686 261° West 160 184 5,800 -700 Descending Minneapolis Center
Thu 08:53:42 AM 40.9975 -98.1258 273° West 160 184 5,100 -694 Descending Minneapolis Center
Thu 08:54:43 AM 40.9994 -98.1753 273° West 154 177 4,400 -750 Descending Minneapolis Center
Thu 08:55:42 AM 41.0014 -98.2250 267° West 149 171 3,600 -857 Descending Minneapolis Center
Thu 08:56:42 AM 40.9992 -98.2769 259° West 143 165 2,700 -650 Descending Minneapolis Center
Thu 08:57:42 AM 40.9933 -98.3178 221° Southwest 136 157 2,300 -350 Descending Minneapolis Center
Thu 08:58:42 AM 40.9733 -98.3408 221° Southwest 130 150 2,000 -300 Descending Minneapolis Center

Login

Don't have an account? Register now (free) for customized features, flight alerts, and more!